Time;durP1;ratioP1;P1;durP2;ratioP2;P2;SDS_P1;SDS_P2;PMS_P1;PMS_P2;Temp;Humidity;BMP_temperature;BMP_pressure;BME280_temperature;BME280_humidity;BME280_pressure;Samples;Min_cycle;Max_cycle;Signal;HPM_P1;HPM_P2
2022/06/03 00:02:31;;;;;;;4.70;4.50;;;13.70;99.90;;;;;;5010542;28;20474;-90
2022/06/03 00:05:24;;;;;;;4.73;4.63;;;14.10;99.90;;;;;;4995052;28;20474;-90
2022/06/03 00:08:08;;;;;;;5.07;4.90;;;14.10;99.90;;;;;;4992601;28;20542;-91
2022/06/03 00:10:49;;;;;;;4.90;4.80;;;13.70;99.90;;;;;;5010644;28;20423;-90
2022/06/03 00:13:52;;;;;;;4.70;4.60;;;13.60;99.90;;;;;;4995066;28;20693;-90
2022/06/03 00:16:40;;;;;;;5.10;5.00;;;14.50;99.90;;;;;;4994853;28;20993;-91
2022/06/03 00:25:51;;;;;;;4.63;4.40;;;13.50;99.90;;;;;;5046653;28;20447;-92
2022/06/03 00:28:54;;;;;;;5.37;5.17;;;13.40;99.90;;;;;;5025085;28;20427;-92
2022/06/03 00:31:57;;;;;;;4.63;4.43;;;13.30;99.90;;;;;;5026932;28;20415;-95
2022/06/03 00:34:29;;;;;;;4.73;4.63;;;13.40;99.90;;;;;;5021091;28;20411;-94
2022/06/03 00:37:26;;;;;;;4.53;4.43;;;13.30;99.90;;;;;;5018376;28;20478;-91
2022/06/03 00:40:16;;;;;;;4.70;4.60;;;13.10;99.90;;;;;;4997475;28;20427;-89
2022/06/03 00:43:09;;;;;;;4.33;4.13;;;13.40;99.90;;;;;;4995901;28;20455;-90
2022/06/03 00:46:06;;;;;;;5.10;4.80;;;13.60;99.90;;;;;;5009771;28;20478;-90
2022/06/03 00:48:48;;;;;;;4.50;4.27;;;13.70;99.90;;;;;;4994205;28;20503;-91
2022/06/03 00:51:33;;;;;;;4.90;4.70;;;13.30;99.90;;;;;;4999813;28;20421;-91
2022/06/03 00:54:41;;;;;;;4.70;4.60;;;13.20;99.90;;;;;;5014751;28;20415;-90
2022/06/03 00:57:36;;;;;;;4.77;4.57;;;13.10;99.90;;;;;;5017835;28;20507;-90
2022/06/03 01:00:33;;;;;;;5.30;5.07;;;12.90;99.90;;;;;;5018286;28;21018;-90
2022/06/03 01:03:34;;;;;;;4.53;4.47;;;13.00;99.90;;;;;;5008548;28;20419;-90
2022/06/03 01:06:38;;;;;;;5.33;4.93;;;12.70;99.90;;;;;;5016329;28;20668;-91
2022/06/03 01:09:19;;;;;;;5.20;5.10;;;13.10;99.90;;;;;;5034504;28;20945;-91
2022/06/03 01:12:08;;;;;;;5.13;4.77;;;13.60;99.90;;;;;;5034945;28;20403;-91
2022/06/03 01:14:53;;;;;;;5.27;5.17;;;12.40;99.90;;;;;;5033669;28;20431;-90
2022/06/03 01:17:38;;;;;;;4.60;4.60;;;12.50;99.90;;;;;;5019838;28;20800;-91
2022/06/03 01:20:37;;;;;;;5.50;5.27;;;12.50;99.90;;;;;;5025738;28;20482;-92
2022/06/03 01:23:27;;;;;;;5.33;5.00;;;12.60;99.90;;;;;;4995067;28;20440;-92
2022/06/03 01:26:06;;;;;;;5.10;5.00;;;12.40;99.90;;;;;;4966534;28;20445;-92
2022/06/03 01:28:56;;;;;;;5.10;5.00;;;12.80;99.90;;;;;;4964332;28;20416;-92
2022/06/03 01:31:49;;;;;;;5.00;4.90;;;12.40;99.90;;;;;;4991020;28;20439;-92
2022/06/03 01:34:39;;;;;;;5.13;4.93;;;12.40;99.90;;;;;;4994961;28;20487;-92
2022/06/03 01:37:41;;;;;;;5.60;5.40;;;12.40;99.90;;;;;;4958072;28;20457;-92
2022/06/03 01:40:48;;;;;;;5.53;5.20;;;12.50;99.90;;;;;;4954798;28;20520;-92
2022/06/03 01:43:51;;;;;;;5.47;5.17;;;12.50;99.90;;;;;;4969757;28;20437;-90
2022/06/03 01:46:49;;;;;;;5.93;5.70;;;13.00;99.90;;;;;;4960612;28;20516;-90
2022/06/03 01:49:33;;;;;;;5.83;5.53;;;13.00;99.90;;;;;;4975334;28;20505;-90
2022/06/03 01:52:36;;;;;;;5.23;4.93;;;12.50;99.90;;;;;;4958388;28;20425;-90
2022/06/03 01:56:07;;;;;;;5.57;5.37;;;12.30;99.90;;;;;;4992521;28;20458;-91
2022/06/03 01:58:50;;;;;;;5.60;5.23;;;;;;;;;;4975313;28;20530;-90
2022/06/03 02:01:34;;;;;;;6.07;5.77;;;12.40;99.90;;;;;;4974486;28;20420;-91
2022/06/03 02:04:18;;;;;;;5.03;4.63;;;12.50;99.90;;;;;;5011506;28;20423;-91
2022/06/03 02:07:01;;;;;;;5.10;4.90;;;12.50;99.90;;;;;;5009395;28;20436;-88
2022/06/03 02:09:54;;;;;;;4.63;4.50;;;12.40;99.90;;;;;;4958254;28;20480;-90
2022/06/03 02:12:51;;;;;;;5.30;5.00;;;12.90;99.90;;;;;;4993841;28;20416;-91
2022/06/03 02:15:47;;;;;;;5.00;4.70;;;12.80;99.90;;;;;;4970630;28;20495;-91
2022/06/03 02:18:44;;;;;;;5.50;5.30;;;12.00;99.90;;;;;;4971535;28;20405;-90
2022/06/03 02:21:15;;;;;;;5.60;5.40;;;12.00;99.90;;;;;;4992728;28;20538;-89
2022/06/03 02:24:25;;;;;;;5.90;5.40;;;12.40;99.90;;;;;;4997017;28;20463;-91
2022/06/03 02:27:45;;;;;;;5.90;5.70;;;12.10;99.90;;;;;;4956413;28;20437;-90
2022/06/03 02:30:54;;;;;;;4.93;4.60;;;13.70;99.90;;;;;;4977275;28;20591;-90
2022/06/03 02:34:12;;;;;;;4.93;4.80;;;11.60;99.90;;;;;;5011218;28;20427;-90
2022/06/03 02:37:10;;;;;;;5.23;5.13;;;12.90;99.90;;;;;;4954934;28;20520;-91
2022/06/03 02:39:38;;;;;;;6.07;5.60;;;12.00;99.90;;;;;;4973225;28;20449;-91
2022/06/03 02:42:04;;;;;;;5.70;5.40;;;;;;;;;;4981940;28;21086;-90
2022/06/03 02:44:33;;;;;;;5.77;5.50;;;;;;;;;;4973801;28;20958;-90
2022/06/03 02:47:47;;;;;;;5.63;5.53;;;12.00;99.90;;;;;;4979233;28;20426;-91
2022/06/03 02:50:43;;;;;;;6.27;5.70;;;12.30;99.90;;;;;;4960889;28;21034;-90
2022/06/03 02:53:46;;;;;;;5.50;5.30;;;16.40;99.90;;;;;;4983609;28;20421;-91
2022/06/03 02:56:49;;;;;;;6.10;5.80;;;13.00;99.90;;;;;;4975484;28;21002;-91
2022/06/03 03:00:13;;;;;;;6.50;5.90;;;13.90;99.90;;;;;;4971767;28;20436;-90
2022/06/03 03:03:11;;;;;;;6.83;6.47;;;12.50;99.90;;;;;;4931117;29;20522;-91
2022/06/03 03:06:34;;;;;;;6.80;6.50;;;12.30;99.90;;;;;;4943804;28;20469;-90
2022/06/03 03:09:11;;;;;;;6.90;6.50;;;12.50;99.90;;;;;;4877291;29;21020;-91
2022/06/03 03:11:57;;;;;;;6.17;5.80;;;11.80;99.90;;;;;;4874875;29;20432;-91
2022/06/03 03:15:10;;;;;;;6.37;5.97;;;11.60;99.90;;;;;;4950045;28;21004;-90
2022/06/03 03:18:06;;;;;;;6.50;6.20;;;11.90;99.90;;;;;;4959845;28;21133;-90
2022/06/03 03:20:55;;;;;;;7.43;7.03;;;11.80;99.90;;;;;;4955325;28;20421;-91
2022/06/03 03:23:42;;;;;;;6.17;5.90;;;11.70;99.90;;;;;;4992380;28;20957;-91
2022/06/03 03:26:38;;;;;;;7.07;6.47;;;16.90;99.90;;;;;;4998401;28;20423;-90
2022/06/03 03:29:33;;;;;;;6.40;6.00;;;11.90;99.90;;;;;;4982123;28;20435;-90
2022/06/03 03:32:09;;;;;;;6.43;5.97;;;11.90;99.90;;;;;;5010764;28;20763;-90
2022/06/03 03:35:08;;;;;;;6.83;6.53;;;11.80;99.90;;;;;;4973942;28;20408;-91
2022/06/03 03:38:22;;;;;;;6.93;6.33;;;13.40;99.90;;;;;;4984693;28;20424;-90
2022/06/03 03:40:50;;;;;;;7.00;6.50;;;11.80;99.90;;;;;;4978023;28;20519;-89
2022/06/03 03:43:47;;;;;;;6.70;6.30;;;11.70;99.90;;;;;;4988030;28;20443;-89
2022/06/03 03:46:49;;;;;;;6.73;6.43;;;13.20;99.90;;;;;;4961592;28;20548;-92
2022/06/03 03:49:56;;;;;;;7.30;6.80;;;12.00;99.90;;;;;;4957914;28;20786;-90
2022/06/03 03:52:40;;;;;;;7.13;6.73;;;12.10;99.90;;;;;;4984639;28;20448;-91
2022/06/03 03:55:18;;;;;;;6.63;6.33;;;11.50;99.90;;;;;;4957820;28;20489;-92
2022/06/03 03:58:11;;;;;;;6.47;6.00;;;11.60;99.90;;;;;;4975932;28;20979;-91
2022/06/03 04:00:55;;;;;;;6.90;6.60;;;12.00;99.90;;;;;;4957401;28;20515;-90
2022/06/03 04:03:40;;;;;;;10.43;6.67;;;12.10;99.90;;;;;;4996168;28;20427;-90
2022/06/03 04:06:29;;;;;;;7.07;6.70;;;11.80;99.90;;;;;;4966529;28;20453;-91
2022/06/03 04:09:37;;;;;;;7.30;6.70;;;13.90;99.90;;;;;;4977084;28;20464;-90
2022/06/03 04:12:59;;;;;;;7.47;6.90;;;13.60;99.90;;;;;;4981341;28;20431;-90
2022/06/03 04:16:05;;;;;;;7.23;6.70;;;11.80;99.90;;;;;;4917936;29;20478;-90
2022/06/03 04:19:24;;;;;;;7.93;7.50;;;11.30;99.90;;;;;;4931803;28;20435;-90
2022/06/03 04:22:19;;;;;;;8.60;7.87;;;12.00;99.90;;;;;;4957991;28;20457;-90
2022/06/03 04:25:06;;;;;;;7.90;7.40;;;13.70;99.90;;;;;;5007478;28;20482;-89
2022/06/03 04:28:12;;;;;;;7.53;7.13;;;12.60;99.90;;;;;;5007786;28;20602;-89
2022/06/03 04:31:22;;;;;;;7.50;7.00;;;11.90;99.90;;;;;;4993414;28;20443;-90
2022/06/03 04:34:03;;;;;;;7.07;6.77;;;13.40;99.90;;;;;;4990694;28;21337;-90
2022/06/03 04:37:15;;;;;;;8.40;7.67;;;11.70;99.90;;;;;;4990111;28;20563;-91
2022/06/03 04:40:18;;;;;;;11.23;7.27;;;12.40;99.90;;;;;;5022520;28;20431;-95
2022/06/03 04:48:16;;;;;;;6.47;6.17;;;13.10;99.90;;;;;;5091584;23;20471;-95
2022/06/03 04:53:20;;;;;;;7.60;7.10;;;14.20;99.90;;;;;;4394554;23;20244;-90
2022/06/03 04:56:43;;;;;;;;;;;;;;;;;;;;;
2022/06/03 04:59:31;;;;;;;6.73;6.23;;;14.60;99.90;;;;;;5409371;23;20871;-88
2022/06/03 05:10:07;;;;;;;6.40;6.10;;;15.60;99.90;;;;;;5294280;23;20451;-90
2022/06/03 05:15:30;;;;;;;6.00;5.80;;;15.90;99.90;;;;;;5468083;23;20485;-93
2022/06/03 05:37:55;;;;;;;6.70;6.30;;;17.80;99.90;;;;;;5018943;23;20569;-94
2022/06/03 05:42:23;;;;;;;6.77;6.43;;;20.80;99.90;;;;;;4965948;28;20449;-94
2022/06/03 05:46:44;;;;;;;6.20;6.00;;;18.90;99.90;;;;;;4987637;28;20879;-94
2022/06/03 05:49:24;;;;;;;6.30;6.00;;;18.80;99.90;;;;;;5164128;23;20496;-93
2022/06/03 05:51:51;;;;;;;5.47;5.37;;;18.70;99.90;;;;;;5011764;28;20464;-92
2022/06/03 06:13:44;;;;;;;5.80;5.50;;;21.00;87.60;;;;;;5279445;23;20465;-92
2022/06/03 06:21:27;;;;;;;5.20;5.00;;;21.50;86.30;;;;;;4786946;26;20484;-96
2022/06/03 06:27:08;;;;;;;6.20;5.90;;;22.10;80.60;;;;;;4983799;23;20482;-95
2022/06/03 06:29:43;;;;;;;4.90;4.73;;;22.30;77.90;;;;;;4968285;28;20461;-93
2022/06/03 06:32:34;;;;;;;5.70;5.30;;;22.90;76.70;;;;;;4948553;28;20492;-90
2022/06/03 06:35:36;;;;;;;9.27;8.70;;;23.80;76.80;;;;;;4972743;28;20546;-93
2022/06/03 06:38:09;;;;;;;4.73;4.53;;;23.20;74.30;;;;;;4977932;28;20436;-93
2022/06/03 06:41:17;;;;;;;3.87;3.77;;;22.20;73.70;;;;;;4980878;28;20441;-93
2022/06/03 06:43:49;;;;;;;5.47;5.00;;;22.90;72.10;;;;;;4978745;28;20476;-90
2022/06/03 06:46:43;;;;;;;4.60;4.50;;;22.80;74.90;;;;;;4963774;28;20430;-90
2022/06/03 06:49:25;;;;;;;4.97;4.57;;;23.50;87.00;;;;;;4949647;28;20525;-88
2022/06/03 06:52:18;;;;;;;4.70;4.40;;;24.00;72.80;;;;;;4945837;28;20544;-87
2022/06/03 06:55:08;;;;;;;4.07;4.07;;;24.70;72.30;;;;;;4944749;29;21155;-88
2022/06/03 06:57:56;;;;;;;4.17;4.10;;;23.60;72.60;;;;;;4954275;28;20847;-88
2022/06/03 07:00:39;;;;;;;3.90;3.90;;;24.70;67.70;;;;;;4955670;29;20455;-88
2022/06/03 07:03:44;;;;;;;4.87;4.57;;;23.10;70.70;;;;;;4946420;29;20434;-89
2022/06/03 07:06:44;;;;;;;5.13;4.87;;;25.10;73.80;;;;;;4953465;28;20819;-93
2022/06/03 07:09:38;;;;;;;4.43;4.13;;;23.30;67.20;;;;;;4943029;29;20438;-89
2022/06/03 07:12:24;;;;;;;3.33;3.33;;;23.60;70.30;;;;;;4964746;29;20445;-90
2022/06/03 07:15:14;;;;;;;3.97;3.77;;;24.20;67.40;;;;;;4971832;29;20490;-89
2022/06/03 07:21:15;;;;;;;2.60;2.60;;;25.20;63.50;;;;;;4916757;29;20910;-92
2022/06/03 07:23:55;;;;;;;3.10;2.90;;;24.40;65.40;;;;;;4971958;28;20471;-90
2022/06/03 07:26:37;;;;;;;3.50;3.40;;;27.00;66.80;;;;;;4982550;28;20502;-91
2022/06/03 07:29:21;;;;;;;3.77;3.67;;;25.70;59.80;;;;;;4988135;28;20527;-89
2022/06/03 07:32:02;;;;;;;2.90;2.90;;;26.60;56.40;;;;;;4634437;28;10000334;-91
2022/06/03 07:34:37;;;;;;;2.73;2.63;;;27.80;55.90;;;;;;4971625;28;20260;-89
2022/06/03 07:37:25;;;;;;;4.00;3.80;;;27.10;56.40;;;;;;4978056;28;20454;-89
2022/06/03 07:40:05;;;;;;;3.53;3.37;;;26.40;53.90;;;;;;4995561;28;21129;-89
2022/06/03 07:43:04;;;;;;;3.40;3.30;;;26.80;60.00;;;;;;4968304;28;20615;-91
2022/06/03 07:45:36;;;;;;;3.50;3.40;;;26.80;76.60;;;;;;4979223;28;20460;-89
2022/06/03 07:48:04;;;;;;;3.03;2.90;;;26.80;79.60;;;;;;4985439;28;20437;-90
2022/06/03 07:50:35;;;;;;;3.57;3.47;;;27.00;75.90;;;;;;4964388;28;20942;-89
2022/06/03 07:53:19;;;;;;;2.67;2.67;;;26.50;78.20;;;;;;4971534;28;20862;-92
2022/06/03 07:55:53;;;;;;;3.20;3.00;;;27.30;75.60;;;;;;4975088;28;20500;-87
2022/06/03 07:58:22;;;;;;;3.30;3.07;;;28.30;76.40;;;;;;4969863;28;20534;-87
2022/06/03 08:00:48;;;;;;;2.47;2.37;;;27.30;72.70;;;;;;4991972;28;20506;-88
2022/06/03 08:03:17;;;;;;;2.90;2.90;;;28.20;71.90;;;;;;4972066;28;20472;-90
2022/06/03 08:05:45;;;;;;;7.60;7.40;;;28.40;71.00;;;;;;4984792;28;20497;-88
2022/06/03 08:11:04;;;;;;;4.00;3.70;;;29.70;67.80;;;;;;4998458;28;20450;-87
2022/06/03 08:13:39;;;;;;;2.63;2.53;;;30.10;66.00;;;;;;4960842;28;20465;-91
2022/06/03 08:16:11;;;;;;;3.67;3.47;;;30.40;64.70;;;;;;4967743;28;20454;-90
2022/06/03 08:18:45;;;;;;;2.57;2.37;;;30.80;56.50;;;;;;4962531;28;20480;-88
2022/06/03 08:21:43;;;;;;;2.60;2.60;;;30.70;54.30;;;;;;4989963;28;22171;-91
2022/06/03 08:24:27;;;;;;;3.00;2.90;;;30.60;56.30;;;;;;4971452;28;20452;-92
2022/06/03 08:27:08;;;;;;;2.43;2.33;;;30.70;56.10;;;;;;4975543;28;20477;-90
2022/06/03 08:29:42;;;;;;;2.87;2.57;;;30.50;54.00;;;;;;5013777;28;20442;-91
2022/06/03 08:32:26;;;;;;;6.27;2.57;;;31.00;53.90;;;;;;4977387;28;20421;-90
2022/06/03 08:35:04;;;;;;;2.70;2.60;;;30.50;57.50;;;;;;4983616;28;20445;-93
2022/06/03 08:37:34;;;;;;;2.20;2.13;;;30.70;57.50;;;;;;4960743;28;20440;-88
2022/06/03 08:40:10;;;;;;;3.33;2.83;;;30.30;57.30;;;;;;4990485;28;20440;-90
2022/06/03 08:45:47;;;;;;;2.80;2.80;;;30.70;57.80;;;;;;4991066;28;20479;-93
2022/06/03 08:48:15;;;;;;;2.90;2.90;;;31.50;65.20;;;;;;4985166;28;20424;-88
2022/06/03 08:54:31;;;;;;;5.13;2.23;;;31.20;62.80;;;;;;4976872;28;20440;-88
2022/06/03 08:57:05;;;;;;;7.10;3.00;;;;;;;;;;4964421;28;21158;-89
2022/06/03 08:59:41;;;;;;;5.03;2.87;;;;;;;;;;4986184;28;20449;-93
2022/06/03 09:02:13;;;;;;;2.10;2.00;;;32.40;60.60;;;;;;4983641;28;20431;-92
2022/06/03 09:04:54;;;;;;;3.37;3.17;;;31.50;61.20;;;;;;4965113;28;20440;-90
2022/06/03 09:07:40;;;;;;;2.50;2.50;;;31.10;61.90;;;;;;4987144;28;20404;-88
2022/06/03 09:10:18;;;;;;;2.50;2.33;;;30.10;62.10;;;;;;4988503;28;20446;-88
2022/06/03 09:13:01;;;;;;;2.83;2.13;;;30.00;59.50;;;;;;4972862;28;20436;-90
2022/06/03 09:15:42;;;;;;;2.67;2.30;;;29.60;58.30;;;;;;4965820;28;20570;-89
2022/06/03 09:18:26;;;;;;;2.70;2.60;;;30.90;58.90;;;;;;4963185;28;20441;-90
2022/06/03 09:21:12;;;;;;;2.60;2.50;;;30.10;57.80;;;;;;4958660;28;20438;-89
2022/06/03 09:23:46;;;;;;;2.60;2.50;;;29.50;57.00;;;;;;4977414;28;20454;-89
2022/06/03 09:26:23;;;;;;;2.60;2.50;;;29.40;58.60;;;;;;4992864;28;20531;-91
2022/06/03 09:28:50;;;;;;;2.10;2.10;;;30.60;56.40;;;;;;4969485;28;20440;-91
2022/06/03 09:31:17;;;;;;;2.33;2.33;;;31.60;57.30;;;;;;4978069;28;20429;-89
2022/06/03 09:33:45;;;;;;;2.73;2.57;;;32.10;57.00;;;;;;4974438;28;20432;-89
2022/06/03 09:36:14;;;;;;;2.10;2.10;;;;;;;;;;4968943;28;20429;-92
2022/06/03 09:38:46;;;;;;;1.90;1.90;;;32.90;41.40;;;;;;4989593;28;20456;-90
2022/06/03 09:41:12;;;;;;;3.53;3.23;;;33.00;42.50;;;;;;4967814;28;20444;-90
2022/06/03 09:43:43;;;;;;;2.50;2.33;;;33.00;42.50;;;;;;4971951;28;20786;-91
2022/06/03 09:46:31;;;;;;;2.40;2.27;;;33.40;42.90;;;;;;4974594;28;20480;-93
2022/06/03 09:48:58;;;;;;;3.83;2.10;;;32.60;43.80;;;;;;4962421;28;20461;-90
2022/06/03 09:51:57;;;;;;;1.87;1.77;;;32.40;42.30;;;;;;4995444;23;20489;-90
2022/06/03 09:54:52;;;;;;;1.97;1.87;;;32.10;42.80;;;;;;4962496;28;20526;-92
2022/06/03 09:57:53;;;;;;;2.07;1.97;;;34.50;42.20;;;;;;4936029;28;20494;-89
2022/06/03 10:00:29;;;;;;;2.20;2.20;;;34.50;41.50;;;;;;4946150;28;20429;-92
2022/06/03 10:02:56;;;;;;;2.00;2.00;;;31.10;42.20;;;;;;4938817;29;20441;-90
2022/06/03 10:05:35;;;;;;;3.67;2.30;;;30.80;42.80;;;;;;4967902;28;20926;-92
2022/06/03 10:08:08;;;;;;;4.67;2.33;;;30.20;44.70;;;;;;4949177;28;20445;-90
2022/06/03 10:13:21;;;;;;;2.10;1.90;;;32.30;42.30;;;;;;4967460;28;20425;-90
2022/06/03 10:16:00;;;;;;;2.00;2.00;;;31.70;42.50;;;;;;4944258;28;20560;-88
2022/06/03 10:18:49;;;;;;;3.37;3.17;;;31.00;43.40;;;;;;4962306;28;20497;-91
2022/06/03 10:21:26;;;;;;;2.17;2.17;;;31.40;43.20;;;;;;4953876;29;20446;-90
2022/06/03 10:24:31;;;;;;;2.13;2.13;;;32.00;42.80;;;;;;4940883;29;20584;-89
2022/06/03 10:27:08;;;;;;;2.00;1.90;;;31.10;41.10;;;;;;4908555;28;20474;-91
2022/06/03 10:29:50;;;;;;;2.20;2.13;;;;;;;;;;4934253;29;20433;-89
2022/06/03 10:32:22;;;;;;;2.00;2.00;;;29.70;48.10;;;;;;4948336;28;20536;-89
2022/06/03 10:34:48;;;;;;;2.20;2.20;;;29.50;45.40;;;;;;4953966;28;20464;-88
2022/06/03 10:37:20;;;;;;;2.37;2.27;;;28.70;45.50;;;;;;4939305;28;20433;-91
2022/06/03 10:39:46;;;;;;;1.93;1.93;;;29.90;45.40;;;;;;4971991;28;20496;-90
2022/06/03 10:42:18;;;;;;;2.50;2.30;;;29.50;42.50;;;;;;4942731;29;20517;-89
2022/06/03 10:44:54;;;;;;;1.50;1.50;;;29.20;42.70;;;;;;4938111;28;20687;-90
2022/06/03 10:47:22;;;;;;;1.70;1.70;;;29.00;42.70;;;;;;4933005;29;20426;-91
2022/06/03 10:49:57;;;;;;;1.97;1.80;;;29.20;42.80;;;;;;4951396;28;20560;-90
2022/06/03 11:01:24;;;;;;;1.90;1.80;;;30.20;42.20;;;;;;4949788;28;20466;-88
2022/06/03 11:03:52;;;;;;;2.30;2.30;;;30.80;40.60;;;;;;4945408;28;20659;-91
2022/06/03 11:06:22;;;;;;;2.90;2.40;;;29.80;42.10;;;;;;4949937;28;20467;-89
2022/06/03 11:08:53;;;;;;;2.60;2.50;;;31.00;41.40;;;;;;4946749;28;20476;-93
2022/06/03 11:11:45;;;;;;;2.73;1.70;;;33.20;40.60;;;;;;4958980;28;20462;-92
2022/06/03 11:14:30;;;;;;;2.83;2.37;;;32.00;36.90;;;;;;4949612;28;20501;-88
2022/06/03 11:17:04;;;;;;;2.30;2.30;;;31.00;40.00;;;;;;4944385;29;21009;-91
2022/06/03 11:19:33;;;;;;;2.27;2.17;;;34.00;39.10;;;;;;4926176;29;20431;-91
2022/06/03 11:22:24;;;;;;;2.70;2.53;;;31.90;38.90;;;;;;4940612;29;20494;-91
2022/06/03 11:25:04;;;;;;;3.27;3.07;;;31.30;38.00;;;;;;4956361;28;20485;-88
2022/06/03 11:27:48;;;;;;;2.13;2.03;;;30.70;39.00;;;;;;4928066;29;20426;-92
2022/06/03 11:30:55;;;;;;;5.97;4.57;;;30.60;39.90;;;;;;4952855;28;20451;-89
2022/06/03 11:33:29;;;;;;;2.40;2.40;;;31.90;38.40;;;;;;4874349;29;20446;-92
2022/06/03 11:36:24;;;;;;;3.37;3.20;;;30.70;39.40;;;;;;4864007;29;20415;-92
2022/06/03 11:39:24;;;;;;;2.40;2.40;;;31.90;39.80;;;;;;4951005;28;20430;-89
2022/06/03 11:42:14;;;;;;;2.80;2.60;;;30.50;39.10;;;;;;4906404;28;20431;-91
2022/06/03 11:45:21;;;;;;;3.13;2.63;;;31.50;40.20;;;;;;4967692;28;20520;-89
2022/06/03 11:48:55;;;;;;;;;;;;;;;;;;;;;
2022/06/03 11:51:21;;;;;;;2.47;2.30;;;30.10;38.10;;;;;;4951212;28;20481;-88
2022/06/03 11:53:49;;;;;;;2.50;2.40;;;30.70;40.60;;;;;;4954740;29;20415;-93
2022/06/03 11:56:24;;;;;;;2.43;2.40;;;30.20;41.30;;;;;;4989403;28;20224;-91
2022/06/03 11:58:58;;;;;;;3.43;2.70;;;32.10;42.30;;;;;;5001021;23;20484;-91
2022/06/03 12:01:43;;;;;;;4.00;2.83;;;31.20;39.40;;;;;;4954864;29;20461;-94
2022/06/03 12:04:49;;;;;;;2.80;2.80;;;30.30;39.10;;;;;;4985280;28;20452;-92
2022/06/03 12:07:41;;;;;;;3.00;2.90;;;31.50;39.50;;;;;;4953326;29;20466;-93
2022/06/03 12:10:07;;;;;;;2.50;2.40;;;;;;;;;;4999861;23;20415;-92
2022/06/03 12:13:28;;;;;;;2.47;2.40;;;32.90;37.10;;;;;;4989278;28;20421;-88
2022/06/03 12:15:53;;;;;;;3.00;2.80;;;33.70;39.00;;;;;;4968168;29;20430;-91
2022/06/03 12:18:32;;;;;;;2.60;2.60;;;34.40;38.50;;;;;;4989799;28;20466;-93
2022/06/03 12:20:59;;;;;;;3.40;2.80;;;35.80;40.10;;;;;;4979670;28;20269;-82
2022/06/03 12:23:25;;;;;;;2.90;2.70;;;34.30;38.90;;;;;;4944801;28;20758;-89
2022/06/03 12:25:51;;;;;;;2.63;2.63;;;;;;;;;;4959546;28;20468;-88
2022/06/03 12:28:35;;;;;;;2.33;2.30;;;34.20;36.60;;;;;;4967212;28;20270;-89
2022/06/03 12:31:24;;;;;;;2.90;2.80;;;33.70;37.40;;;;;;4941963;28;20431;-90
2022/06/03 12:33:53;;;;;;;3.53;3.33;;;33.80;39.60;;;;;;4950415;28;20409;-88
2022/06/03 12:36:38;;;;;;;2.57;2.47;;;33.50;40.10;;;;;;4957933;29;20435;-88
2022/06/03 12:39:09;;;;;;;2.80;2.80;;;33.60;40.00;;;;;;4942074;29;20425;-90
2022/06/03 12:41:50;;;;;;;3.03;2.93;;;32.30;38.10;;;;;;4953092;28;20488;-88
2022/06/03 12:45:17;;;;;;;2.53;2.53;;;32.80;40.50;;;;;;4944841;29;20442;-91
2022/06/03 12:47:55;;;;;;;2.17;2.17;;;34.70;40.40;;;;;;4892196;29;20440;-92
2022/06/03 12:50:35;;;;;;;3.40;3.20;;;33.70;39.10;;;;;;4961678;28;20437;-94
2022/06/03 12:53:25;;;;;;;4.17;4.07;;;34.00;37.00;;;;;;4966113;29;20460;-94
2022/06/03 12:55:58;;;;;;;4.10;2.77;;;34.30;38.50;;;;;;4956745;28;20444;-91
2022/06/03 12:59:03;;;;;;;2.23;2.13;;;35.70;39.30;;;;;;4958738;29;20506;-94
2022/06/03 13:01:40;;;;;;;2.63;2.53;;;33.30;38.10;;;;;;4941212;29;20411;-93
2022/06/03 13:04:42;;;;;;;3.90;2.77;;;33.50;40.30;;;;;;4947178;29;20481;-91
2022/06/03 13:07:19;;;;;;;2.90;2.80;;;33.30;38.70;;;;;;4975489;28;20465;-93
2022/06/03 13:10:32;;;;;;;2.93;2.83;;;32.30;41.40;;;;;;4944349;29;21065;-89
2022/06/03 13:13:41;;;;;;;2.93;2.60;;;31.80;39.20;;;;;;4946858;29;20438;-90
2022/06/03 13:16:37;;;;;;;6.40;3.03;;;33.20;40.80;;;;;;4932965;29;20434;-89
2022/06/03 13:19:20;;;;;;;2.47;2.37;;;34.00;44.90;;;;;;4957995;29;20481;-92
2022/06/03 13:22:02;;;;;;;3.47;2.60;;;35.00;49.00;;;;;;4971560;28;20449;-92
2022/06/03 13:24:35;;;;;;;4.97;4.60;;;35.00;52.00;;;;;;4973648;28;20441;-92
2022/06/03 13:29:49;;;;;;;4.63;2.80;;;35.00;49.50;;;;;;5038094;23;20539;-94
2022/06/03 13:32:20;;;;;;;3.03;2.80;;;34.30;49.40;;;;;;4981939;28;20445;-91
2022/06/03 13:34:56;;;;;;;2.60;2.60;;;34.20;51.90;;;;;;4991886;28;20436;-95
2022/06/03 13:37:43;;;;;;;2.33;2.33;;;33.80;51.60;;;;;;5099605;23;20500;-93
2022/06/03 13:40:36;;;;;;;2.80;2.80;;;33.60;52.50;;;;;;5169862;23;20476;-95
2022/06/03 13:43:22;;;;;;;2.20;2.20;;;33.50;48.20;;;;;;4976127;28;20444;-92
2022/06/03 13:45:48;;;;;;;3.00;2.90;;;;;;;;;;4995531;28;20506;-89
2022/06/03 13:50:53;;;;;;;2.93;2.83;;;;;;;;;;5134212;23;20504;-92
2022/06/03 13:53:30;;;;;;;2.50;2.50;;;31.50;54.00;;;;;;4991583;28;20461;-91
2022/06/03 13:56:10;;;;;;;2.70;2.70;;;30.90;55.90;;;;;;4973498;28;20449;-93
2022/06/03 14:02:03;;;;;;;2.83;2.83;;;30.80;54.50;;;;;;4836646;23;10002350;-90
2022/06/03 14:04:54;;;;;;;3.50;3.30;;;30.30;58.20;;;;;;5171626;23;20882;-93
2022/06/03 14:07:32;;;;;;;3.37;3.17;;;30.40;55.80;;;;;;4970727;28;20468;-93
2022/06/03 14:10:07;;;;;;;2.97;2.87;;;29.50;58.50;;;;;;4958830;29;20445;-92
2022/06/03 14:12:53;;;;;;;5.03;3.63;;;29.50;56.60;;;;;;4967242;28;20416;-90
2022/06/03 14:15:44;;;;;;;3.80;3.70;;;29.50;58.30;;;;;;4967735;28;20429;-94
2022/06/03 14:18:12;;;;;;;3.50;3.30;;;;;;;;;;4981981;28;20425;-93
2022/06/03 14:20:52;;;;;;;2.53;2.53;;;28.90;61.40;;;;;;4999261;28;20474;-82
2022/06/03 14:23:31;;;;;;;2.80;2.70;;;28.90;61.20;;;;;;4959975;28;20440;-87
2022/06/03 14:26:17;;;;;;;2.83;2.83;;;28.80;56.00;;;;;;4938751;29;20482;-86
2022/06/03 14:29:35;;;;;;;2.37;2.17;;;28.70;62.10;;;;;;4922122;29;20530;-88
2022/06/03 14:32:09;;;;;;;3.07;2.87;;;28.80;58.20;;;;;;4900617;28;21079;-88
2022/06/03 14:34:46;;;;;;;3.30;3.30;;;28.80;62.30;;;;;;4964997;28;20437;-90
2022/06/03 14:37:49;;;;;;;8.03;3.77;;;28.90;59.70;;;;;;4962156;29;20488;-89
2022/06/03 14:40:32;;;;;;;3.87;3.53;;;29.10;58.00;;;;;;4945465;29;21022;-91
2022/06/03 14:43:00;;;;;;;3.03;2.83;;;28.60;61.50;;;;;;4948788;29;20540;-93
2022/06/03 14:45:28;;;;;;;2.63;2.63;;;;;;;;;;4948024;29;20474;-92
2022/06/03 14:48:05;;;;;;;4.30;4.30;;;28.80;62.20;;;;;;4950779;28;20438;-92
2022/06/03 14:50:35;;;;;;;3.20;3.00;;;29.00;59.70;;;;;;4935561;29;20434;-93
2022/06/03 14:53:01;;;;;;;2.87;2.87;;;;;;;;;;4960108;28;20447;-91
2022/06/03 14:55:38;;;;;;;6.67;3.77;;;28.90;61.20;;;;;;4932214;29;20455;-92
2022/06/03 15:02:42;;;;;;;;;;;;;;;;;;;;;
2022/06/03 15:05:25;;;;;;;6.60;4.00;;;28.70;59.20;;;;;;4970757;28;20468;-92
2022/06/03 15:08:12;;;;;;;2.87;2.87;;;28.70;64.10;;;;;;4944142;29;20864;-92
2022/06/03 15:10:45;;;;;;;10.47;6.77;;;;;;;;;;4947366;29;20430;-92
2022/06/03 15:13:25;;;;;;;3.37;3.37;;;28.90;64.80;;;;;;4942089;29;20454;-91
2022/06/03 15:15:51;;;;;;;2.97;2.97;;;;;;;;;;4924536;29;20514;-90
2022/06/03 15:18:19;;;;;;;2.33;2.33;;;;;;;;;;4945416;29;20502;-92
2022/06/03 15:21:08;;;;;;;;;;;;;;;;;;;;;
2022/06/03 15:23:36;;;;;;;3.27;3.17;;;;;;;;;;4956121;29;20556;-90
2022/06/03 15:26:10;;;;;;;2.83;2.83;;;27.80;64.50;;;;;;4951155;29;20458;-89
2022/06/03 15:28:36;;;;;;;2.93;2.90;;;;;;;;;;4946010;28;20477;-91
2022/06/03 15:31:08;;;;;;;3.03;2.83;;;;;;;;;;4964675;28;20509;-91
2022/06/03 15:33:44;;;;;;;2.80;2.80;;;;;;;;;;4957672;29;20422;-90
2022/06/03 15:36:29;;;;;;;3.57;3.37;;;27.30;61.90;;;;;;4942786;29;20570;-91
2022/06/03 15:39:27;;;;;;;4.37;3.17;;;27.70;61.40;;;;;;4968701;28;20440;-92
2022/06/03 15:42:03;;;;;;;3.00;2.80;;;;;;;;;;4935607;29;20511;-91
2022/06/03 15:44:39;;;;;;;3.17;3.03;;;27.40;68.30;;;;;;4952729;29;20461;-91
2022/06/03 15:47:16;;;;;;;11.57;10.73;;;27.10;68.10;;;;;;4972661;28;20469;-91
2022/06/03 15:50:00;;;;;;;3.67;3.60;;;27.00;69.10;;;;;;4954539;29;20413;-91
2022/06/03 15:55:13;;;;;;;3.60;3.30;;;;;;;;;;5146033;23;20488;-89
2022/06/03 15:58:06;;;;;;;4.60;4.20;;;;;;;;;;4992044;28;20520;-89
2022/06/03 16:00:37;;;;;;;4.10;3.77;;;;;;;;;;4968534;28;20474;-91
2022/06/03 16:03:26;;;;;;;3.73;3.73;;;;;;;;;;4992637;28;20433;-91
2022/06/03 16:06:01;;;;;;;4.03;3.93;;;;;;;;;;5026620;28;20465;-90
2022/06/03 16:08:38;;;;;;;4.60;4.50;;;;;;;;;;4983279;28;20439;-88
2022/06/03 16:11:32;;;;;;;3.70;3.43;;;26.20;71.40;;;;;;4988590;28;20544;-89
2022/06/03 16:14:07;;;;;;;3.30;3.10;;;;;;;;;;4968560;28;20444;-92
2022/06/03 16:16:43;;;;;;;4.27;3.80;;;;;;;;;;4994617;28;20432;-95
2022/06/03 16:19:09;;;;;;;3.13;3.10;;;;;;;;;;4972034;28;20433;-92
2022/06/03 16:21:47;;;;;;;3.73;3.63;;;;;;;;;;4987608;28;20444;-92
2022/06/03 16:24:36;;;;;;;4.30;4.10;;;26.30;73.10;;;;;;4974169;28;20869;-92
2022/06/03 16:27:21;;;;;;;6.13;4.10;;;;;;;;;;4960026;28;20468;-91
2022/06/03 16:30:11;;;;;;;7.20;6.90;;;26.60;72.50;;;;;;4979167;28;20429;-93
2022/06/03 16:32:47;;;;;;;5.37;5.17;;;26.20;72.50;;;;;;4986515;28;20433;-92